Time;durP1;ratioP1;P1;durP2;ratioP2;P2;SDS_P1;SDS_P2;PMS_P1;PMS_P2;Temp;Humidity;BMP_temperature;BMP_pressure;BME280_temperature;BME280_humidity;BME280_pressure;Samples;Min_cycle;Max_cycle;Signal;HPM_P1;HPM_P2
2020/12/23 00:00:50;;;;;;;18.83;17.13;;;;;21.70;100253.00;;;;2071059;28;20223;-77
2020/12/23 00:02:00;;;;;;;17.70;16.00;;;;;21.70;100244.00;;;;2063115;28;20215;-77
2020/12/23 00:03:00;;;;;;;18.02;16.30;;;;;21.70;100236.00;;;;2047779;28;20271;-76
2020/12/23 00:04:01;;;;;;;19.80;17.80;;;;;21.70;100234.00;;;;2046938;28;20305;-76
2020/12/23 00:05:07;;;;;;;18.10;16.40;;;;;21.70;100237.00;;;;2058788;28;20520;-77
2020/12/23 00:06:07;;;;;;;18.48;16.67;;;;;21.70;100215.00;;;;2060520;28;20236;-76
2020/12/23 00:07:11;;;;;;;19.20;17.20;;;;;21.70;100238.00;;;;2065988;28;21027;-76
2020/12/23 00:08:11;;;;;;;18.15;16.05;;;;;21.70;100235.00;;;;2068029;28;20261;-76
2020/12/23 00:09:11;;;;;;;17.50;15.80;;;;;21.70;100237.00;;;;2058295;28;20555;-77
2020/12/23 00:10:12;;;;;;;17.17;15.40;;;;;21.70;100227.00;;;;2071472;28;20236;-76
2020/12/23 00:11:15;;;;;;;17.20;15.40;;;;;21.70;100224.00;;;;2063102;28;20933;-77
2020/12/23 00:12:16;;;;;;;17.63;15.82;;;;;21.70;100219.00;;;;2047429;28;20759;-77
2020/12/23 00:13:16;;;;;;;16.73;14.73;;;;;21.70;100227.00;;;;2054944;28;20274;-76
2020/12/23 00:14:16;;;;;;;17.80;16.10;;;;;21.70;100218.00;;;;2069258;28;20312;-76
2020/12/23 00:15:17;;;;;;;17.37;15.67;;;;;21.70;100229.00;;;;2064714;28;20711;-77
2020/12/23 00:16:17;;;;;;;15.90;14.20;;;;;21.70;100211.00;;;;2069352;28;20731;-76
2020/12/23 00:17:18;;;;;;;16.97;15.27;;;;;21.70;100228.00;;;;2056558;28;20624;-77
2020/12/23 00:18:19;;;;;;;16.98;15.10;;;;;21.70;100228.00;;;;2061470;28;20214;-76
2020/12/23 00:19:19;;;;;;;16.10;14.50;;;;;21.70;100231.00;;;;2064506;28;20648;-76
2020/12/23 00:20:19;;;;;;;16.00;14.40;;;;;21.70;100226.00;;;;2069749;28;20226;-77
2020/12/23 00:21:20;;;;;;;15.27;13.67;;;;;21.70;100220.00;;;;2062944;28;20221;-77
2020/12/23 00:22:20;;;;;;;16.10;14.50;;;;;21.70;100216.00;;;;2061548;28;20221;-76
2020/12/23 00:23:20;;;;;;;16.00;14.50;;;;;21.70;100217.00;;;;2063062;28;20304;-77
2020/12/23 00:24:21;;;;;;;16.10;14.60;;;;;21.50;100211.00;;;;2064387;28;20222;-77
2020/12/23 00:25:21;;;;;;;14.90;13.50;;;;;21.70;100212.00;;;;2071004;28;20229;-77
2020/12/23 00:26:22;;;;;;;15.37;13.77;;;;;21.70;100216.00;;;;2063144;28;20244;-76
2020/12/23 00:27:22;;;;;;;13.77;12.40;;;;;21.70;100213.00;;;;2062980;28;20253;-77
2020/12/23 00:28:22;;;;;;;14.73;13.33;;;;;21.70;100218.00;;;;2052946;28;20289;-77
2020/12/23 00:29:23;;;;;;;15.00;13.60;;;;;21.60;100219.00;;;;2061966;28;20232;-77
2020/12/23 00:30:23;;;;;;;16.43;14.83;;;;;21.60;100219.00;;;;2070123;28;20229;-77
2020/12/23 00:31:23;;;;;;;15.23;13.70;;;;;21.60;100216.00;;;;2063020;28;20224;-76
2020/12/23 00:32:27;;;;;;;15.23;13.63;;;;;21.60;100208.00;;;;2063041;28;20217;-77
2020/12/23 00:33:27;;;;;;;15.50;13.93;;;;;21.60;100220.00;;;;2055362;28;20216;-77
2020/12/23 00:34:27;;;;;;;14.07;12.77;;;;;21.60;100220.00;;;;2054998;28;20298;-77
2020/12/23 00:35:28;;;;;;;14.70;13.20;;;;;21.60;100218.00;;;;2054903;28;20215;-77
2020/12/23 00:36:28;;;;;;;14.43;13.03;;;;;21.60;100219.00;;;;2062836;28;20213;-77
2020/12/23 00:37:28;;;;;;;14.60;13.10;;;;;21.60;100208.00;;;;2062600;28;20213;-77
2020/12/23 00:38:29;;;;;;;13.97;12.57;;;;;21.60;100214.00;;;;2055124;28;20265;-77
2020/12/23 00:39:29;;;;;;;13.67;12.37;;;;;21.70;100214.00;;;;2070819;28;20703;-77
2020/12/23 00:40:29;;;;;;;13.13;11.73;;;;;21.60;100214.00;;;;2062911;28;20270;-77
2020/12/23 00:41:30;;;;;;;14.10;12.80;;;;;21.70;100212.00;;;;2071078;28;20700;-77
2020/12/23 00:42:30;;;;;;;14.77;13.37;;;;;21.60;100213.00;;;;2071651;28;20673;-77
2020/12/23 00:43:30;;;;;;;13.27;12.07;;;;;21.60;100212.00;;;;2071632;28;20770;-77
2020/12/23 00:44:31;;;;;;;12.97;11.67;;;;;21.60;100211.00;;;;2079674;28;20675;-77
2020/12/23 00:45:31;;;;;;;13.93;12.20;;;;;21.60;100213.00;;;;2048159;28;20726;-77
2020/12/23 00:46:31;;;;;;;12.93;11.73;;;;;21.60;100216.00;;;;2054233;28;20608;-77
2020/12/23 00:47:32;;;;;;;13.73;12.43;;;;;21.60;100221.00;;;;2070507;28;20588;-77
2020/12/23 00:48:32;;;;;;;13.03;11.73;;;;;21.60;100208.00;;;;2071016;28;20592;-77
2020/12/23 00:49:32;;;;;;;12.60;11.40;;;;;21.60;100215.00;;;;2079786;28;20214;-77
2020/12/23 00:50:32;;;;;;;13.90;12.50;;;;;21.60;100211.00;;;;2079343;28;20222;-77
2020/12/23 00:51:33;;;;;;;11.67;10.67;;;;;21.60;100212.00;;;;2062878;28;20304;-77
2020/12/23 00:52:33;;;;;;;11.77;10.67;;;;;21.60;100214.00;;;;2063428;28;20222;-77
2020/12/23 00:53:33;;;;;;;11.50;10.50;;;;;21.60;100212.00;;;;2070655;28;20270;-76
2020/12/23 00:54:35;;;;;;;12.40;11.20;;;;;21.60;100204.00;;;;2063255;28;20867;-76
2020/12/23 00:55:35;;;;;;;12.00;10.88;;;;;21.60;100216.00;;;;2069964;28;20662;-76
2020/12/23 00:56:35;;;;;;;12.50;11.20;;;;;21.60;100218.00;;;;2063737;28;20225;-76
2020/12/23 00:57:36;;;;;;;11.90;10.80;;;;;21.60;100222.00;;;;2061920;28;20211;-76
2020/12/23 00:58:36;;;;;;;12.47;11.37;;;;;21.60;100221.00;;;;2055799;28;20811;-76
2020/12/23 00:59:37;;;;;;;14.40;11.73;;;;;21.60;100213.00;;;;2079063;28;20225;-76
2020/12/23 01:00:37;;;;;;;11.93;10.73;;;;;21.60;100223.00;;;;2071013;28;20316;-77
2020/12/23 01:01:37;;;;;;;12.27;11.07;;;;;21.60;100220.00;;;;2070248;28;20276;-76
2020/12/23 01:02:38;;;;;;;11.50;10.30;;;;;21.60;100221.00;;;;2069983;28;20220;-76
2020/12/23 01:03:38;;;;;;;12.60;10.40;;;;;21.60;100219.00;;;;2063709;28;20222;-76
2020/12/23 01:04:38;;;;;;;12.10;10.90;;;;;21.60;100216.00;;;;2070786;28;20216;-76
2020/12/23 01:05:38;;;;;;;11.63;10.43;;;;;21.60;100219.00;;;;2062800;28;20240;-76
2020/12/23 01:06:39;;;;;;;11.13;10.10;;;;;21.60;100217.00;;;;2061631;28;20221;-76
2020/12/23 01:07:39;;;;;;;10.43;9.43;;;;;21.60;100214.00;;;;2054800;28;20228;-76
2020/12/23 01:08:40;;;;;;;10.97;9.87;;;;;21.60;100209.00;;;;2056041;28;20227;-76
2020/12/23 01:09:41;;;;;;;11.23;10.13;;;;;21.60;100224.00;;;;2061417;28;20225;-76
2020/12/23 01:10:44;;;;;;;9.97;9.00;;;;;21.60;100217.00;;;;2062944;28;20225;-76
2020/12/23 01:11:44;;;;;;;10.35;9.30;;;;;21.60;100222.00;;;;2062890;28;20220;-77
2020/12/23 01:12:45;;;;;;;9.77;8.77;;;;;21.60;100220.00;;;;2060907;28;20289;-76
2020/12/23 01:13:45;;;;;;;10.43;9.53;;;;;21.60;100202.00;;;;2048791;28;20220;-77
2020/12/23 01:14:45;;;;;;;10.00;9.00;;;;;21.60;100200.00;;;;2039065;29;20213;-77
2020/12/23 01:15:46;;;;;;;9.87;8.93;;;;;21.60;100197.00;;;;2047344;28;20218;-77
2020/12/23 01:16:46;;;;;;;10.07;9.07;;;;;21.60;100208.00;;;;2064311;28;20206;-76
2020/12/23 01:17:46;;;;;;;10.97;9.30;;;;;21.60;100216.00;;;;2043895;28;20707;-77
2020/12/23 01:18:47;;;;;;;9.10;8.20;;;;;21.50;100229.00;;;;2056625;28;20217;-76
2020/12/23 01:19:47;;;;;;;8.60;7.80;;;;;21.60;100221.00;;;;2072384;28;20232;-76
2020/12/23 01:20:48;;;;;;;9.90;8.90;;;;;21.50;100239.00;;;;2075429;28;20949;-77
2020/12/23 01:21:48;;;;;;;11.40;9.07;;;;;21.50;100237.00;;;;2070109;28;20754;-77
2020/12/23 01:22:48;;;;;;;9.57;8.57;;;;;21.50;100240.00;;;;2056123;28;20993;-76
2020/12/23 01:23:49;;;;;;;9.40;7.67;;;;;21.60;100243.00;;;;2058710;28;20218;-77
2020/12/23 01:24:49;;;;;;;8.90;8.00;;;;;21.50;100236.00;;;;2060964;28;20245;-76
2020/12/23 01:25:51;;;;;;;9.53;8.53;;;;;21.50;100244.00;;;;2058736;28;20220;-76
2020/12/23 01:26:51;;;;;;;9.60;8.60;;;;;21.50;100233.00;;;;2064200;28;20226;-77
2020/12/23 01:27:51;;;;;;;9.03;8.00;;;;;21.50;100238.00;;;;2069319;28;20261;-77
2020/12/23 01:28:51;;;;;;;8.67;7.77;;;;;21.50;100240.00;;;;2075822;28;20204;-77
2020/12/23 01:29:52;;;;;;;9.40;8.03;;;;;21.50;100233.00;;;;2069324;28;20260;-76
2020/12/23 01:30:52;;;;;;;8.47;7.57;;;;;21.50;100232.00;;;;2058948;28;20245;-77
2020/12/23 01:31:53;;;;;;;7.90;7.10;;;;;21.50;100233.00;;;;2072316;28;20224;-77
2020/12/23 01:32:53;;;;;;;9.53;8.13;;;;;21.50;100238.00;;;;2076037;28;20215;-76
2020/12/23 01:33:53;;;;;;;8.10;7.30;;;;;21.50;100241.00;;;;2081124;28;20591;-76
2020/12/23 01:34:54;;;;;;;7.50;6.80;;;;;21.50;100227.00;;;;2080866;28;20565;-77
2020/12/23 01:35:54;;;;;;;7.50;6.73;;;;;21.50;100249.00;;;;2061088;28;20666;-76
2020/12/23 01:36:54;;;;;;;7.60;6.90;;;;;21.50;100240.00;;;;2059368;28;20788;-76
2020/12/23 01:37:55;;;;;;;7.87;7.00;;;;;21.50;100243.00;;;;2080253;28;20217;-76
2020/12/23 01:38:55;;;;;;;8.00;7.20;;;;;21.50;100245.00;;;;2067600;28;20213;-76
2020/12/23 01:39:55;;;;;;;7.30;6.60;;;;;21.50;100252.00;;;;2068935;28;20672;-77
2020/12/23 01:40:57;;;;;;;7.67;6.83;;;;;21.50;100246.00;;;;2067639;28;20206;-77
2020/12/23 01:41:57;;;;;;;8.40;6.93;;;;;21.40;100254.00;;;;2062552;28;20745;-77
2020/12/23 01:42:58;;;;;;;8.57;7.67;;;;;21.50;100243.00;;;;2060560;28;20242;-77
2020/12/23 01:43:58;;;;;;;7.10;6.43;;;;;21.50;100242.00;;;;2056305;28;20647;-77
2020/12/23 01:44:59;;;;;;;6.53;5.90;;;;;21.50;100249.00;;;;2059866;28;21701;-77
2020/12/23 01:46:00;;;;;;;8.27;6.22;;;;;21.50;100257.00;;;;2063988;28;21016;-77
2020/12/23 01:47:00;;;;;;;7.20;6.50;;;;;21.50;100254.00;;;;2050618;28;20219;-77
2020/12/23 01:48:07;;;;;;;8.90;6.57;;;;;21.50;100252.00;;;;2053435;28;20222;-77
2020/12/23 01:49:08;;;;;;;6.60;6.00;;;;;21.50;100251.00;;;;2055591;28;20637;-77
2020/12/23 01:50:08;;;;;;;6.43;5.83;;;;;21.50;100248.00;;;;2051761;28;20235;-77
2020/12/23 01:51:08;;;;;;;6.53;5.73;;;;;21.50;100252.00;;;;2053243;28;20593;-76
2020/12/23 01:52:09;;;;;;;7.57;6.30;;;;;21.50;100239.00;;;;2058921;28;20594;-77
2020/12/23 01:53:09;;;;;;;7.07;6.33;;;;;21.50;100233.00;;;;2053299;28;20226;-77
2020/12/23 01:54:12;;;;;;;6.47;5.87;;;;;21.50;100261.00;;;;2050836;28;20222;-77
2020/12/23 01:55:13;;;;;;;7.10;6.05;;;;;21.50;100245.00;;;;2053618;28;20601;-76
2020/12/23 01:56:13;;;;;;;6.47;5.87;;;;;21.50;100258.00;;;;2050053;28;20301;-77
2020/12/23 01:57:13;;;;;;;6.93;6.23;;;;;21.50;100258.00;;;;2064145;28;20742;-76
2020/12/23 01:58:14;;;;;;;6.37;5.80;;;;;21.50;100256.00;;;;2055962;28;20704;-77
2020/12/23 01:59:14;;;;;;;6.67;5.97;;;;;21.50;100250.00;;;;2055863;28;20245;-76
2020/12/23 02:00:15;;;;;;;5.77;5.20;;;;;21.50;100265.00;;;;2061188;28;20210;-76
2020/12/23 02:01:17;;;;;;;6.73;6.10;;;;;21.50;100262.00;;;;2072081;28;20233;-76
2020/12/23 02:02:29;;;;;;;7.10;5.57;;;;;21.50;100263.00;;;;2072019;28;20277;-77
2020/12/23 02:03:30;;;;;;;5.95;5.45;;;;;21.50;100255.00;;;;2064735;28;20230;-77
2020/12/23 02:04:32;;;;;;;6.10;5.50;;;;;21.50;100261.00;;;;2055062;28;20279;-77
2020/12/23 02:05:32;;;;;;;6.75;5.60;;;;;21.50;100258.00;;;;2063560;28;20217;-77
2020/12/23 02:06:34;;;;;;;6.57;5.87;;;;;21.50;100256.00;;;;2070601;28;20216;-77
2020/12/23 02:07:34;;;;;;;6.03;5.43;;;;;21.40;100238.00;;;;2055960;28;20234;-78
2020/12/23 02:08:35;;;;;;;5.57;4.90;;;;;21.40;100239.00;;;;2048402;28;20229;-75
2020/12/23 02:09:35;;;;;;;5.20;4.70;;;;;21.40;100243.00;;;;2064007;28;20222;-76
2020/12/23 02:10:36;;;;;;;6.43;5.30;;;;;21.40;100250.00;;;;2063201;28;20658;-75
2020/12/23 02:11:37;;;;;;;5.70;5.20;;;;;21.50;100244.00;;;;2048093;28;20225;-75
2020/12/23 02:12:37;;;;;;;5.60;5.10;;;;;21.40;100243.00;;;;2048876;28;20239;-75
2020/12/23 02:13:42;;;;;;;5.80;5.30;;;;;21.40;100241.00;;;;2047866;29;20241;-75
2020/12/23 02:14:42;;;;;;;5.32;4.82;;;;;21.40;100238.00;;;;2055377;28;20216;-75
2020/12/23 02:15:42;;;;;;;6.67;4.93;;;;;21.40;100242.00;;;;2057688;28;20800;-72
2020/12/23 02:16:43;;;;;;;5.77;5.13;;;;;21.40;100235.00;;;;2068774;28;20214;-75
2020/12/23 02:17:43;;;;;;;6.17;5.00;;;;;21.40;100237.00;;;;2080683;28;20205;-74
2020/12/23 02:18:44;;;;;;;7.40;5.40;;;;;21.40;100238.00;;;;2071756;28;20240;-75
2020/12/23 02:19:50;;;;;;;6.37;5.70;;;;;21.40;100237.00;;;;2063870;28;20210;-75
2020/12/23 02:20:50;;;;;;;4.95;4.45;;;;;21.40;100228.00;;;;2070172;28;20212;-75
2020/12/23 02:21:51;;;;;;;6.00;5.10;;;;;21.40;100229.00;;;;2066517;28;20218;-75
2020/12/23 02:22:51;;;;;;;6.03;5.00;;;;;21.40;100233.00;;;;2069203;28;20213;-75
2020/12/23 02:23:52;;;;;;;6.80;5.50;;;;;21.40;100229.00;;;;2063893;28;20211;-75
2020/12/23 02:24:52;;;;;;;5.73;5.23;;;;;21.40;100237.00;;;;2058581;28;20295;-75
2020/12/23 02:25:52;;;;;;;5.10;4.23;;;;;21.40;100223.00;;;;2063678;28;20260;-75
2020/12/23 02:26:53;;;;;;;6.17;4.77;;;;;21.40;100240.00;;;;2055269;28;20205;-75
2020/12/23 02:27:53;;;;;;;7.63;4.83;;;;;21.40;100242.00;;;;2058386;28;20276;-75
2020/12/23 02:28:53;;;;;;;5.33;4.83;;;;;21.40;100244.00;;;;2058965;28;20265;-75
2020/12/23 02:29:55;;;;;;;4.70;4.30;;;;;21.40;100231.00;;;;2060042;28;20727;-75
2020/12/23 02:31:00;;;;;;;5.60;5.00;;;;;21.40;100232.00;;;;2062921;28;20233;-75
2020/12/23 02:32:00;;;;;;;5.43;4.93;;;;;21.40;100213.00;;;;2068578;28;20221;-75
2020/12/23 02:33:01;;;;;;;4.83;4.33;;;;;21.40;100221.00;;;;2071964;28;20222;-75
2020/12/23 02:34:01;;;;;;;5.27;4.77;;;;;21.40;100217.00;;;;2067824;28;20213;-75
2020/12/23 02:35:02;;;;;;;4.83;4.43;;;;;21.30;100212.00;;;;2059725;28;20221;-75
2020/12/23 02:36:02;;;;;;;5.53;4.93;;;;;21.30;100217.00;;;;2063857;28;20213;-75
2020/12/23 02:37:03;;;;;;;5.53;5.03;;;;;21.40;100212.00;;;;2067226;28;20280;-75
2020/12/23 02:38:04;;;;;;;5.55;4.53;;;;;21.40;100209.00;;;;2063759;28;20221;-75
2020/12/23 02:39:04;;;;;;;6.07;4.87;;;;;21.40;100205.00;;;;2068098;28;20323;-75
2020/12/23 02:40:05;;;;;;;5.27;4.80;;;;;21.40;100207.00;;;;2071814;28;20225;-76
2020/12/23 02:41:05;;;;;;;5.60;5.10;;;;;21.30;100210.00;;;;2066630;28;20225;-75
2020/12/23 02:42:06;;;;;;;5.50;5.00;;;;;21.30;100200.00;;;;2068412;28;20710;-75
2020/12/23 02:43:06;;;;;;;6.33;4.63;;;;;21.30;100197.00;;;;2066900;28;20212;-75
2020/12/23 02:44:06;;;;;;;6.03;5.43;;;;;21.30;100203.00;;;;2063552;28;20215;-75
2020/12/23 02:45:07;;;;;;;6.63;5.27;;;;;21.30;100194.00;;;;2063493;28;20226;-75
2020/12/23 02:46:07;;;;;;;5.30;4.80;;;;;21.40;100198.00;;;;2068269;28;20276;-75
2020/12/23 02:47:11;;;;;;;5.40;4.90;;;;;21.30;100183.00;;;;2042358;28;20227;-75
2020/12/23 02:48:11;;;;;;;5.47;4.88;;;;;21.30;100195.00;;;;2053380;28;20230;-75
2020/12/23 02:49:12;;;;;;;4.97;4.57;;;;;21.30;100196.00;;;;2070976;28;20217;-75
2020/12/23 02:50:12;;;;;;;5.17;4.77;;;;;21.30;100186.00;;;;2069128;28;20301;-75
2020/12/23 02:51:12;;;;;;;5.63;5.10;;;;;21.30;100193.00;;;;2065752;28;20222;-75
2020/12/23 02:52:13;;;;;;;5.03;4.53;;;;;21.30;100185.00;;;;2069202;28;20871;-75
2020/12/23 02:53:13;;;;;;;5.40;4.90;;;;;21.30;100181.00;;;;2065977;28;20344;-75
2020/12/23 02:54:13;;;;;;;5.33;4.80;;;;;21.30;100183.00;;;;2069283;28;20303;-75
2020/12/23 02:55:14;;;;;;;4.63;4.13;;;;;21.30;100184.00;;;;2057538;28;20306;-75
2020/12/23 02:56:14;;;;;;;6.03;5.00;;;;;21.30;100179.00;;;;2061388;28;20218;-75
2020/12/23 02:57:14;;;;;;;4.77;4.37;;;;;21.40;100179.00;;;;2057603;28;20218;-75
2020/12/23 02:58:15;;;;;;;4.90;4.50;;;;;21.30;100181.00;;;;2069316;28;20228;-75
2020/12/23 02:59:15;;;;;;;5.10;4.50;;;;;21.40;100176.00;;;;2079566;28;20319;-75
2020/12/23 03:00:15;;;;;;;5.80;4.83;;;;;21.40;100176.00;;;;2071166;28;20217;-75
2020/12/23 03:01:16;;;;;;;6.00;5.20;;;;;21.30;100175.00;;;;2063884;28;20214;-75
2020/12/23 03:02:16;;;;;;;7.03;5.30;;;;;21.30;100176.00;;;;2071652;28;20220;-75
2020/12/23 03:03:16;;;;;;;5.57;4.43;;;;;21.30;100175.00;;;;2073915;28;20227;-75
2020/12/23 03:04:17;;;;;;;7.63;5.43;;;;;21.30;100167.00;;;;2063453;28;20229;-76
2020/12/23 03:05:17;;;;;;;4.80;4.33;;;;;21.30;100175.00;;;;2060678;28;20270;-76
2020/12/23 03:06:17;;;;;;;5.00;4.60;;;;;21.30;100175.00;;;;2062692;28;21665;-72
2020/12/23 03:07:18;;;;;;;5.50;5.00;;;;;21.30;100170.00;;;;2057000;28;20222;-74
2020/12/23 03:08:18;;;;;;;5.20;4.70;;;;;21.30;100171.00;;;;2055292;28;20226;-75
2020/12/23 03:09:18;;;;;;;4.70;4.30;;;;;21.30;100179.00;;;;2069609;28;20248;-75
2020/12/23 03:10:19;;;;;;;5.33;4.83;;;;;21.30;100176.00;;;;2080243;28;20302;-74
2020/12/23 03:11:19;;;;;;;5.80;5.30;;;;;21.30;100166.00;;;;2063531;28;20209;-75
2020/12/23 03:12:19;;;;;;;5.77;4.70;;;;;21.30;100174.00;;;;2063470;28;21047;-75
2020/12/23 03:13:20;;;;;;;5.60;5.10;;;;;21.30;100178.00;;;;2071460;28;20213;-75
2020/12/23 03:14:20;;;;;;;5.60;5.00;;;;;21.30;100182.00;;;;2072136;28;20216;-75
2020/12/23 03:15:20;;;;;;;4.77;4.37;;;;;21.30;100172.00;;;;2055109;28;20238;-75
2020/12/23 03:16:21;;;;;;;5.33;4.83;;;;;21.30;100178.00;;;;2062089;28;20213;-75
2020/12/23 03:17:21;;;;;;;5.37;4.80;;;;;21.30;100169.00;;;;2080133;28;20215;-75
2020/12/23 03:18:21;;;;;;;5.97;5.37;;;;;21.30;100172.00;;;;2073167;28;20211;-75
2020/12/23 03:19:22;;;;;;;5.10;4.70;;;;;21.30;100172.00;;;;2070098;28;20228;-75
2020/12/23 03:20:22;;;;;;;5.53;5.03;;;;;21.20;100174.00;;;;2055267;28;20218;-75
2020/12/23 03:21:22;;;;;;;4.87;4.47;;;;;21.30;100174.00;;;;2063345;28;20219;-75
2020/12/23 03:22:23;;;;;;;5.20;4.70;;;;;21.20;100171.00;;;;2063421;28;20213;-75
2020/12/23 03:23:23;;;;;;;5.60;5.07;;;;;21.30;100160.00;;;;2048359;28;20714;-75
2020/12/23 03:24:23;;;;;;;5.27;4.50;;;;;21.30;100159.00;;;;2062298;28;20232;-75
2020/12/23 03:25:24;;;;;;;5.93;5.33;;;;;21.20;100170.00;;;;2047884;28;20619;-75
2020/12/23 03:26:25;;;;;;;5.57;5.07;;;;;21.20;100159.00;;;;2061632;28;20338;-75
2020/12/23 03:27:25;;;;;;;6.77;5.07;;;;;21.30;100161.00;;;;2064193;28;20276;-75
2020/12/23 03:28:25;;;;;;;5.47;4.90;;;;;21.20;100158.00;;;;2063818;28;20221;-75
2020/12/23 03:29:26;;;;;;;7.80;5.27;;;;;21.20;100152.00;;;;2069688;28;20221;-75
2020/12/23 03:30:26;;;;;;;6.20;5.37;;;;;21.30;100160.00;;;;2057297;28;20238;-75
2020/12/23 03:31:29;;;;;;;5.03;4.53;;;;;21.30;100154.00;;;;2064016;28;20206;-75
2020/12/23 03:32:29;;;;;;;5.63;5.00;;;;;21.30;100156.00;;;;2063580;28;20313;-75
2020/12/23 03:33:29;;;;;;;5.70;5.10;;;;;21.20;100146.00;;;;2063707;28;20225;-75
2020/12/23 03:34:30;;;;;;;5.23;4.73;;;;;21.20;100145.00;;;;2071179;28;20221;-75
2020/12/23 03:35:30;;;;;;;5.87;5.27;;;;;21.20;100156.00;;;;2063262;28;20705;-75
2020/12/23 03:36:30;;;;;;;5.10;4.60;;;;;21.30;100151.00;;;;2055370;28;20745;-75
2020/12/23 03:37:30;;;;;;;5.30;4.80;;;;;21.20;100147.00;;;;2079604;28;20727;-75
2020/12/23 03:38:31;;;;;;;5.33;4.80;;;;;21.20;100149.00;;;;2062606;28;20779;-75
2020/12/23 03:39:31;;;;;;;5.77;5.27;;;;;21.20;100149.00;;;;2055002;28;20563;-76
2020/12/23 03:40:31;;;;;;;5.83;5.23;;;;;21.20;100149.00;;;;2055170;28;20677;-75
2020/12/23 03:41:32;;;;;;;5.27;4.70;;;;;21.20;100128.00;;;;2079970;28;20587;-76
2020/12/23 03:42:33;;;;;;;5.30;4.80;;;;;21.20;100145.00;;;;2063297;28;20860;-75
2020/12/23 03:43:33;;;;;;;7.27;4.70;;;;;21.20;100147.00;;;;2054811;28;20211;-75
2020/12/23 03:44:33;;;;;;;5.30;4.90;;;;;21.20;100152.00;;;;2063306;28;20284;-75
2020/12/23 03:45:34;;;;;;;5.10;4.60;;;;;21.20;100147.00;;;;2063183;28;20218;-76
2020/12/23 03:46:34;;;;;;;6.43;5.53;;;;;21.20;100148.00;;;;2055771;28;20243;-75
2020/12/23 03:47:34;;;;;;;5.47;5.07;;;;;21.20;100148.00;;;;2054581;28;20210;-76
2020/12/23 03:48:35;;;;;;;4.83;4.43;;;;;21.20;100160.00;;;;2047732;28;20314;-76
2020/12/23 03:49:35;;;;;;;5.73;5.07;;;;;21.20;100157.00;;;;2062945;28;20206;-76
2020/12/23 03:50:35;;;;;;;6.67;5.57;;;;;21.20;100148.00;;;;2071395;28;20294;-75
2020/12/23 03:51:35;;;;;;;5.70;5.10;;;;;21.20;100162.00;;;;2071374;28;20209;-75
2020/12/23 03:52:36;;;;;;;9.10;5.10;;;;;21.20;100133.00;;;;2062659;28;20884;-75
2020/12/23 03:53:36;;;;;;;5.80;5.30;;;;;21.20;100157.00;;;;2055974;28;20704;-75
2020/12/23 03:54:36;;;;;;;5.07;4.67;;;;;21.20;100161.00;;;;2054226;28;20629;-75
2020/12/23 03:55:37;;;;;;;5.50;5.00;;;;;21.20;100156.00;;;;2047882;28;20238;-75
2020/12/23 03:56:37;;;;;;;7.10;5.20;;;;;21.20;100152.00;;;;2071413;28;20229;-75
2020/12/23 03:57:38;;;;;;;6.20;5.00;;;;;21.20;100150.00;;;;2063961;28;20219;-75
2020/12/23 03:58:39;;;;;;;5.50;4.93;;;;;21.20;100162.00;;;;2071251;28;20306;-75
2020/12/23 03:59:39;;;;;;;5.90;5.27;;;;;21.20;100155.00;;;;2078111;28;20460;-75
2020/12/23 04:00:39;;;;;;;5.37;4.87;;;;;21.20;100156.00;;;;2080017;28;20263;-75
2020/12/23 04:01:40;;;;;;;5.80;5.30;;;;;21.20;100161.00;;;;2078659;28;20208;-75
2020/12/23 04:02:40;;;;;;;5.77;5.17;;;;;21.20;100155.00;;;;2064412;28;20214;-75
2020/12/23 04:03:40;;;;;;;5.90;5.40;;;;;21.20;100146.00;;;;2071195;28;20224;-75
2020/12/23 04:04:41;;;;;;;5.47;4.97;;;;;21.20;100149.00;;;;2069690;28;20595;-75
2020/12/23 04:05:41;;;;;;;6.23;5.20;;;;;21.20;100144.00;;;;2064484;28;20299;-76
2020/12/23 04:06:41;;;;;;;5.63;5.13;;;;;21.20;100146.00;;;;2069570;28;20746;-75
2020/12/23 04:07:42;;;;;;;5.50;5.00;;;;;21.20;100138.00;;;;2073215;28;20718;-76
2020/12/23 04:08:42;;;;;;;5.83;5.30;;;;;21.10;100142.00;;;;2078337;28;20223;-75
2020/12/23 04:09:42;;;;;;;5.07;4.57;;;;;21.20;100133.00;;;;2064543;28;20365;-75
2020/12/23 04:10:43;;;;;;;6.67;5.30;;;;;21.20;100134.00;;;;2071119;28;20232;-75
2020/12/23 04:11:43;;;;;;;6.07;5.30;;;;;21.10;100137.00;;;;2061273;28;20223;-75
2020/12/23 04:12:43;;;;;;;5.97;5.47;;;;;21.20;100124.00;;;;2056688;28;20242;-75
2020/12/23 04:13:44;;;;;;;5.03;4.63;;;;;21.20;100127.00;;;;2057916;28;20258;-76
2020/12/23 04:14:44;;;;;;;5.77;5.13;;;;;21.10;100121.00;;;;2064196;28;20760;-75
2020/12/23 04:15:44;;;;;;;7.20;5.07;;;;;21.20;100122.00;;;;2066521;28;20221;-75
2020/12/23 04:16:45;;;;;;;5.40;4.90;;;;;21.20;100135.00;;;;2054942;28;20939;-75
2020/12/23 04:17:45;;;;;;;6.17;5.57;;;;;21.20;100140.00;;;;2054977;28;20254;-75
2020/12/23 04:18:45;;;;;;;5.30;4.77;;;;;21.20;100135.00;;;;2061093;28;20300;-75
2020/12/23 04:19:46;;;;;;;5.80;5.30;;;;;21.20;100135.00;;;;2056831;28;20226;-75
2020/12/23 04:20:46;;;;;;;6.03;5.43;;;;;21.20;100136.00;;;;2060968;28;20218;-75
2020/12/23 04:21:46;;;;;;;5.20;4.70;;;;;21.20;100133.00;;;;2063152;28;20304;-75
2020/12/23 04:22:47;;;;;;;5.10;4.70;;;;;21.20;100133.00;;;;2065088;28;20249;-76
2020/12/23 04:23:47;;;;;;;6.40;5.77;;;;;21.20;100144.00;;;;2060868;28;20707;-75
2020/12/23 04:24:47;;;;;;;5.97;5.37;;;;;21.10;100133.00;;;;2064974;28;20216;-75
2020/12/23 04:25:48;;;;;;;6.00;5.40;;;;;21.20;100141.00;;;;2068603;28;20320;-75
2020/12/23 04:26:48;;;;;;;6.03;5.50;;;;;21.20;100134.00;;;;2062908;28;20275;-75
2020/12/23 04:27:48;;;;;;;5.10;4.70;;;;;21.10;100129.00;;;;2062945;28;20221;-75
2020/12/23 04:28:49;;;;;;;5.50;5.00;;;;;21.10;100141.00;;;;2041218;29;20238;-75
2020/12/23 04:29:49;;;;;;;5.50;5.00;;;;;21.10;100139.00;;;;2049183;28;20210;-75
2020/12/23 04:30:50;;;;;;;5.53;5.03;;;;;21.10;100143.00;;;;2073494;28;20213;-75
2020/12/23 04:31:50;;;;;;;5.90;5.20;;;;;21.10;100133.00;;;;2068425;28;20265;-75
2020/12/23 04:32:50;;;;;;;5.83;5.23;;;;;21.10;100131.00;;;;2065634;28;20299;-75
2020/12/23 04:33:51;;;;;;;5.00;4.60;;;;;21.10;100138.00;;;;2068507;28;20221;-75
2020/12/23 04:34:51;;;;;;;4.83;4.43;;;;;21.10;100120.00;;;;2057399;28;20724;-77
2020/12/23 04:35:51;;;;;;;5.20;4.70;;;;;21.10;100137.00;;;;2052177;28;20586;-76
2020/12/23 04:36:52;;;;;;;5.20;4.70;;;;;21.10;100141.00;;;;2057692;28;20208;-76
2020/12/23 04:37:52;;;;;;;5.50;5.00;;;;;21.10;100136.00;;;;2068008;28;20333;-76
2020/12/23 04:38:52;;;;;;;5.20;4.70;;;;;21.00;100130.00;;;;2057540;28;20209;-76
2020/12/23 04:39:52;;;;;;;5.50;5.00;;;;;21.00;100143.00;;;;2054718;28;20225;-76
2020/12/23 04:40:53;;;;;;;5.57;5.00;;;;;21.10;100136.00;;;;2055123;28;20269;-76
2020/12/23 04:41:53;;;;;;;5.57;5.07;;;;;21.10;100136.00;;;;2071256;28;20216;-76
2020/12/23 04:42:54;;;;;;;5.90;5.20;;;;;21.00;100130.00;;;;2068051;28;20211;-76
2020/12/23 04:43:54;;;;;;;5.20;4.70;;;;;21.10;100130.00;;;;2049731;28;20211;-76
2020/12/23 04:44:54;;;;;;;4.63;4.23;;;;;21.00;100139.00;;;;2043661;28;20219;-76
2020/12/23 04:45:56;;;;;;;4.70;4.30;;;;;21.10;100131.00;;;;2062511;28;20351;-76
2020/12/23 04:46:57;;;;;;;5.72;5.13;;;;;21.10;100140.00;;;;2061004;28;20220;-76
2020/12/23 04:47:57;;;;;;;5.47;4.97;;;;;21.10;100139.00;;;;2054592;28;20298;-74
2020/12/23 04:48:58;;;;;;;5.40;4.80;;;;;21.10;100131.00;;;;2063123;28;20292;-75
2020/12/23 04:49:59;;;;;;;5.07;4.57;;;;;21.10;100134.00;;;;2055379;28;20316;-76
2020/12/23 04:50:59;;;;;;;5.03;4.57;;;;;21.10;100128.00;;;;2064457;28;20901;-75
2020/12/23 04:51:59;;;;;;;5.00;4.60;;;;;21.10;100123.00;;;;2060701;28;20644;-76
2020/12/23 04:53:00;;;;;;;5.57;5.03;;;;;21.10;100127.00;;;;2068314;28;20591;-75
2020/12/23 04:54:01;;;;;;;5.20;4.80;;;;;21.10;100122.00;;;;2057161;28;20560;-75
2020/12/23 04:55:05;;;;;;;5.33;4.83;;;;;21.10;100120.00;;;;2052626;28;20804;-75
2020/12/23 04:56:05;;;;;;;5.22;4.78;;;;;21.10;100132.00;;;;2072678;28;20453;-76
2020/12/23 04:57:06;;;;;;;5.03;4.53;;;;;21.10;100118.00;;;;2078047;28;20222;-76
2020/12/23 04:58:06;;;;;;;4.83;4.43;;;;;21.10;100122.00;;;;2068205;28;20230;-76